Time;durP1;ratioP1;P1;durP2;ratioP2;P2;SDS_P1;SDS_P2;PMS_P1;PMS_P2;Temp;Humidity;BMP_temperature;BMP_pressure;BME280_temperature;BME280_humidity;BME280_pressure;Samples;Min_cycle;Max_cycle;Signal;HPM_P1;HPM_P2
2021/07/28 00:02:05;;;;;;;;;;;;;;;18.96;78.68;96277.59;5039674;28;19970;-80
2021/07/28 00:04:34;;;;;;;;;;;;;;;18.97;78.72;96279.19;5055470;28;19964;-80
2021/07/28 00:07:00;;;;;;;;;;;;;;;18.95;78.86;96271.50;5055745;28;19982;-80
2021/07/28 00:09:26;;;;;;;;;;;;;;;18.95;78.83;96273.38;5039010;28;20429;-78
2021/07/28 00:11:52;;;;;;;;;;;;;;;18.93;79.30;96273.63;5039209;28;19979;-80
2021/07/28 00:14:18;;;;;;;;;;;;;;;18.93;78.92;96284.25;5055798;28;19968;-78
2021/07/28 00:16:44;;;;;;;;;;;;;;;18.92;80.33;96287.19;5072606;28;19972;-78
2021/07/28 00:19:18;;;;;;;;;;;;;;;18.89;79.36;96282.44;5072536;28;19961;-78
2021/07/28 00:24:32;;;;;;;;;;;;;;;18.83;79.68;96282.44;5072688;28;19977;-79
2021/07/28 00:27:01;;;;;;;;;;;;;;;18.81;79.57;96283.78;5072046;28;19993;-79
2021/07/28 00:29:27;;;;;;;;;;;;;;;18.80;79.34;96288.31;5044484;28;19965;-79
2021/07/28 00:31:53;;;;;;;;;;;;;;;18.78;80.17;96285.16;5072883;28;19976;-80
2021/07/28 00:34:19;;;;;;;;;;;;;;;18.72;79.80;96283.56;5038797;28;20411;-80
2021/07/28 00:36:56;;;;;;;;;;;;;;;18.67;79.33;96278.28;5041936;28;20355;-80
2021/07/28 00:39:22;;;;;;;;;;;;;;;18.66;79.81;96285.44;5072335;28;19964;-79
2021/07/28 00:41:48;;;;;;;;;;;;;;;18.67;79.71;96283.59;5039062;28;20008;-80
2021/07/28 00:44:14;;;;;;;;;;;;;;;18.67;80.45;96289.69;5072092;28;20011;-80
2021/07/28 00:46:40;;;;;;;;;;;;;;;18.68;80.04;96298.44;5038601;28;20068;-79
2021/07/28 00:49:06;;;;;;;;;;;;;;;18.67;80.66;96288.91;5058600;28;19991;-80
2021/07/28 00:51:32;;;;;;;;;;;;;;;18.66;80.47;96303.25;5075969;28;19969;-79
2021/07/28 00:53:58;;;;;;;;;;;;;;;18.64;81.34;96298.19;5059688;28;19976;-80
2021/07/28 00:56:25;;;;;;;;;;;;;;;18.64;81.44;96308.03;5059413;28;20447;-78
2021/07/28 00:58:51;;;;;;;;;;;;;;;18.62;81.84;96302.19;5076227;28;19973;-80
2021/07/28 01:01:17;;;;;;;;;;;;;;;18.59;81.73;96303.53;5059087;28;19963;-80
2021/07/28 01:03:43;;;;;;;;;;;;;;;18.57;82.34;96295.03;5075992;28;20034;-80
2021/07/28 01:06:12;;;;;;;;;;;;;;;18.55;82.71;96305.16;5042357;28;19973;-80
2021/07/28 01:08:38;;;;;;;;;;;;;;;18.56;81.96;96305.94;5042500;28;19985;-80
2021/07/28 01:11:05;;;;;;;;;;;;;;;18.56;82.61;96311.25;5059660;28;20309;-81
2021/07/28 01:13:31;;;;;;;;;;;;;;;18.55;82.54;96309.66;5075531;28;19971;-80
2021/07/28 01:16:09;;;;;;;;;;;;;;;18.55;83.06;96296.38;5077073;28;20329;-79
2021/07/28 01:18:35;;;;;;;;;;;;;;;18.52;82.96;96291.59;5058902;28;19991;-78
2021/07/28 01:21:02;;;;;;;;;;;;;;;18.48;82.68;96293.22;5058523;28;19964;-79
2021/07/28 01:23:29;;;;;;;;;;;;;;;18.39;80.81;96290.34;5077061;28;19968;-78
2021/07/28 01:25:55;;;;;;;;;;;;;;;18.31;80.19;96302.34;5074782;28;19992;-77
2021/07/28 01:28:23;;;;;;;;;;;;;;;18.26;80.15;96286.41;5075735;28;20344;-77
2021/07/28 01:31:01;;;;;;;;;;;;;;;18.23;79.78;96285.09;5075127;28;20443;-78
2021/07/28 01:33:34;;;;;;;;;;;;;;;18.22;80.53;96282.69;5058509;28;19965;-80
2021/07/28 01:36:01;;;;;;;;;;;;;;;18.18;80.17;96287.75;5059059;28;19971;-80
2021/07/28 01:38:27;;;;;;;;;;;;;;;18.15;79.70;96287.50;5058701;28;20428;-79
2021/07/28 01:41:03;;;;;;;;;;;;;;;18.11;79.19;96286.47;5041951;28;19969;-78
2021/07/28 01:43:30;;;;;;;;;;;;;;;18.08;80.32;96289.63;5058597;28;20352;-79
2021/07/28 01:45:56;;;;;;;;;;;;;;;18.04;80.61;96284.09;5075132;28;19980;-79
2021/07/28 01:48:23;;;;;;;;;;;;;;;18.04;80.45;96284.09;5058290;28;19984;-79
2021/07/28 01:50:49;;;;;;;;;;;;;;;18.02;80.31;96275.59;5058772;28;19971;-79
2021/07/28 01:53:16;;;;;;;;;;;;;;;18.02;80.15;96280.91;5042266;28;19968;-78
2021/07/28 01:55:42;;;;;;;;;;;;;;;18.03;80.48;96280.63;5076585;28;19969;-78
2021/07/28 01:58:08;;;;;;;;;;;;;;;18.02;80.84;96279.03;5040737;28;19969;-79
2021/07/28 02:00:34;;;;;;;;;;;;;;;18.04;81.24;96284.09;5074886;28;19964;-78
2021/07/28 02:03:03;;;;;;;;;;;;;;;18.03;80.55;96293.09;5074667;28;20298;-79
2021/07/28 02:05:30;;;;;;;;;;;;;;;18.04;81.01;96284.09;5058287;28;19969;-78
2021/07/28 02:08:01;;;;;;;;;;;;;;;18.05;81.11;96283.00;5058126;28;20356;-78
2021/07/28 02:10:27;;;;;;;;;;;;;;;18.02;81.12;96278.25;5058889;28;19976;-78
2021/07/28 02:12:53;;;;;;;;;;;;;;;18.01;80.81;96274.00;5058223;28;19964;-79
2021/07/28 02:15:19;;;;;;;;;;;;;;;18.00;81.89;96288.34;5057874;28;19971;-78
2021/07/28 02:17:45;;;;;;;;;;;;;;;17.97;81.30;96281.69;5075869;28;19969;-78
2021/07/28 02:20:11;;;;;;;;;;;;;;;17.95;82.13;96283.81;5041799;28;19969;-78
2021/07/28 02:22:37;;;;;;;;;;;;;;;17.92;81.29;96281.72;5075665;28;19969;-77
2021/07/28 02:25:03;;;;;;;;;;;;;;;17.91;81.12;96280.13;5075759;28;19979;-77
2021/07/28 02:27:29;;;;;;;;;;;;;;;17.88;82.41;96282.53;5074013;28;19997;-78
2021/07/28 02:29:55;;;;;;;;;;;;;;;17.85;81.68;96273.25;5057714;28;20067;-78
2021/07/28 02:32:21;;;;;;;;;;;;;;;17.84;81.17;96269.00;5057904;28;19965;-77
2021/07/28 02:34:46;;;;;;;;;;;;;;;17.82;81.44;96271.09;5040993;28;19976;-77
2021/07/28 02:37:12;;;;;;;;;;;;;;;17.80;81.17;96270.56;5057552;28;20030;-77
2021/07/28 02:39:38;;;;;;;;;;;;;;;17.77;82.12;96281.72;5074134;28;20012;-77
2021/07/28 02:42:04;;;;;;;;;;;;;;;17.72;82.18;96282.50;5057255;28;20064;-78
2021/07/28 02:44:30;;;;;;;;;;;;;;;17.69;81.84;96274.31;5075333;28;20060;-77
2021/07/28 02:46:56;;;;;;;;;;;;;;;17.65;82.30;96277.47;5075795;28;20026;-77
2021/07/28 02:49:22;;;;;;;;;;;;;;;17.64;82.01;96286.50;5040455;28;19988;-77
2021/07/28 02:51:48;;;;;;;;;;;;;;;17.63;82.92;96270.84;5073874;28;20010;-77
2021/07/28 02:54:17;;;;;;;;;;;;;;;17.59;82.39;96265.28;5057089;28;20064;-77
2021/07/28 02:56:42;;;;;;;;;;;;;;;17.60;82.31;96268.75;5075187;28;19968;-80
2021/07/28 02:59:08;;;;;;;;;;;;;;;17.59;82.72;96261.84;5057012;28;19969;-80
2021/07/28 03:01:34;;;;;;;;;;;;;;;17.58;82.60;96258.41;5040414;28;20018;-79
2021/07/28 03:04:00;;;;;;;;;;;;;;;17.58;82.41;96263.69;5040150;28;19966;-79
2021/07/28 03:06:26;;;;;;;;;;;;;;;17.57;82.20;96256.78;5040284;28;19973;-79
2021/07/28 03:08:52;;;;;;;;;;;;;;;17.58;82.67;96257.63;5040381;28;20031;-79
2021/07/28 03:11:18;;;;;;;;;;;;;;;17.56;82.22;96254.44;5038926;28;19965;-79
2021/07/28 03:13:44;;;;;;;;;;;;;;;17.55;82.61;96248.31;5073259;28;20004;-80
2021/07/28 03:16:10;;;;;;;;;;;;;;;17.53;82.82;96245.13;5039985;28;20441;-79
2021/07/28 03:18:36;;;;;;;;;;;;;;;17.54;82.61;96245.94;5040581;28;19973;-79
2021/07/28 03:21:02;;;;;;;;;;;;;;;17.51;82.82;96235.88;5056929;28;20018;-78
2021/07/28 03:23:28;;;;;;;;;;;;;;;17.52;82.59;96240.13;5056375;28;20001;-78
2021/07/28 03:25:54;;;;;;;;;;;;;;;17.50;82.91;96250.97;5055970;28;20349;-78
2021/07/28 03:28:20;;;;;;;;;;;;;;;17.48;82.66;96250.44;5073331;28;19991;-78
2021/07/28 03:30:49;;;;;;;;;;;;;;;17.48;82.82;96268.22;5073110;28;19977;-77
2021/07/28 03:33:15;;;;;;;;;;;;;;;17.47;83.30;96272.75;5073332;28;19972;-78
2021/07/28 03:35:41;;;;;;;;;;;;;;;17.44;82.74;96263.44;5056497;28;19965;-77
2021/07/28 03:38:07;;;;;;;;;;;;;;;17.44;82.92;96274.03;5074242;28;19964;-77
2021/07/28 03:40:33;;;;;;;;;;;;;;;17.43;83.40;96271.69;5074239;28;19973;-77
2021/07/28 03:42:59;;;;;;;;;;;;;;;17.41;82.77;96260.53;5072765;28;20012;-78
2021/07/28 03:45:25;;;;;;;;;;;;;;;17.40;83.21;96272.97;5072960;28;20052;-78
2021/07/28 03:47:50;;;;;;;;;;;;;;;17.40;83.02;96272.97;5072800;28;19981;-79
2021/07/28 03:50:16;;;;;;;;;;;;;;;17.40;83.09;96282.78;5074382;28;19975;-78
2021/07/28 03:52:42;;;;;;;;;;;;;;;17.38;83.55;96269.00;5055801;28;19967;-78
2021/07/28 03:55:08;;;;;;;;;;;;;;;17.38;83.13;96271.66;5072807;28;20030;-77
2021/07/28 03:57:34;;;;;;;;;;;;;;;17.36;83.42;96285.16;5074008;28;19973;-77
2021/07/28 04:00:00;;;;;;;;;;;;;;;17.36;83.57;96279.88;5072938;28;20000;-79
2021/07/28 04:02:26;;;;;;;;;;;;;;;17.35;83.36;96265.03;5072610;28;20027;-78
2021/07/28 04:04:52;;;;;;;;;;;;;;;17.35;83.61;96265.03;5072862;28;19987;-78
2021/07/28 04:07:18;;;;;;;;;;;;;;;17.34;83.75;96268.72;5055956;28;20371;-78
2021/07/28 04:09:44;;;;;;;;;;;;;;;17.35;84.49;96273.00;5039413;28;19999;-79
2021/07/28 04:12:09;;;;;;;;;;;;;;;17.34;84.13;96273.25;5039805;28;20479;-79
2021/07/28 04:14:35;;;;;;;;;;;;;;;17.33;83.63;96276.97;5072227;28;20421;-79
2021/07/28 04:17:01;;;;;;;;;;;;;;;17.32;83.76;96278.81;5056371;28;19973;-76
2021/07/28 04:19:27;;;;;;;;;;;;;;;17.30;83.30;96277.50;5072684;28;20037;-78
2021/07/28 04:21:53;;;;;;;;;;;;;;;17.29;83.46;96273.25;5055509;28;19969;-78
2021/07/28 04:24:19;;;;;;;;;;;;;;;17.28;84.01;96255.75;5071887;28;19969;-79
2021/07/28 04:26:45;;;;;;;;;;;;;;;17.18;84.17;96253.91;5038622;28;20494;-78
2021/07/28 04:29:11;;;;;;;;;;;;;;;17.12;84.95;96284.13;5055582;28;20006;-79
2021/07/28 04:31:36;;;;;;;;;;;;;;;17.09;85.36;96292.56;5056102;28;19973;-79
2021/07/28 04:34:02;;;;;;;;;;;;;;;17.11;85.68;96285.16;5072290;28;20059;-78
2021/07/28 04:36:28;;;;;;;;;;;;;;;17.07;84.67;96262.91;5055309;28;19995;-79
2021/07/28 04:38:54;;;;;;;;;;;;;;;17.03;84.78;96249.41;5039191;28;20394;-78
2021/07/28 04:41:20;;;;;;;;;;;;;;;17.06;85.19;96266.63;5055334;28;20008;-80
2021/07/28 04:43:46;;;;;;;;;;;;;;;17.07;85.22;96260.25;5055424;28;19971;-80
2021/07/28 04:46:12;;;;;;;;;;;;;;;17.09;84.54;96266.06;5055306;28;20430;-80
2021/07/28 04:48:37;;;;;;;;;;;;;;;17.11;84.93;96274.56;5038804;28;19983;-80
2021/07/28 04:51:03;;;;;;;;;;;;;;;17.14;84.60;96279.34;5038859;28;19965;-76
2021/07/28 04:53:29;;;;;;;;;;;;;;;17.15;85.23;96281.72;5071924;28;19969;-77
2021/07/28 04:55:56;;;;;;;;;;;;;;;17.17;84.52;96287.53;5055490;28;19964;-77
2021/07/28 04:58:22;;;;;;;;;;;;;;;17.17;83.94;96284.09;5072484;28;20372;-77
2021/07/28 05:00:48;;;;;;;;;;;;;;;17.12;84.12;96294.72;5055504;28;19972;-77
2021/07/28 05:03:14;;;;;;;;;;;;;;;17.06;84.26;96287.81;5072153;28;20437;-77
2021/07/28 05:05:41;;;;;;;;;;;;;;;17.02;84.40;96269.00;5038620;28;20001;-77
2021/07/28 05:08:07;;;;;;;;;;;;;;;17.02;84.92;96275.06;5071903;28;20432;-79
2021/07/28 05:10:33;;;;;;;;;;;;;;;17.03;84.95;96289.94;5055392;28;19965;-78
2021/07/28 05:12:59;;;;;;;;;;;;;;;17.06;84.91;96295.75;5038985;28;20000;-79
2021/07/28 05:15:25;;;;;;;;;;;;;;;17.04;84.60;96296.00;5055487;28;19969;-79
2021/07/28 05:17:51;;;;;;;;;;;;;;;17.04;84.87;96306.63;5071778;28;19968;-79
2021/07/28 05:20:18;;;;;;;;;;;;;;;17.03;83.96;96305.81;5055210;28;19972;-79
2021/07/28 05:22:44;;;;;;;;;;;;;;;17.03;83.66;96302.38;5071102;28;19969;-79
2021/07/28 05:25:10;;;;;;;;;;;;;;;17.01;84.06;96299.22;5054777;28;19969;-79
2021/07/28 05:27:36;;;;;;;;;;;;;;;16.99;83.98;96310.06;5038298;28;19999;-79
2021/07/28 05:30:02;;;;;;;;;;;;;;;16.99;84.44;96303.97;5038402;28;20028;-79
2021/07/28 05:32:28;;;;;;;;;;;;;;;17.01;84.47;96301.84;5073011;28;20432;-80
2021/07/28 05:34:54;;;;;;;;;;;;;;;17.00;84.67;96295.72;5041340;28;19969;-79
2021/07/28 05:37:20;;;;;;;;;;;;;;;16.98;84.30;96303.16;5041635;28;19965;-79
2021/07/28 05:39:46;;;;;;;;;;;;;;;16.96;84.35;96301.81;5041760;28;20411;-80
2021/07/28 05:42:12;;;;;;;;;;;;;;;16.95;84.13;96305.53;5041777;28;19965;-78
2021/07/28 05:44:38;;;;;;;;;;;;;;;16.94;84.49;96298.63;5041507;28;19976;-79
2021/07/28 05:47:04;;;;;;;;;;;;;;;16.98;85.44;96303.16;5075471;28;19964;-80
2021/07/28 05:49:30;;;;;;;;;;;;;;;17.00;84.40;96302.91;5042109;28;19977;-80
2021/07/28 05:51:56;;;;;;;;;;;;;;;16.98;83.87;96292.56;5058288;28;20428;-80
2021/07/28 05:54:22;;;;;;;;;;;;;;;16.96;84.20;96285.94;5074831;28;20011;-80
2021/07/28 05:56:48;;;;;;;;;;;;;;;16.94;83.99;96296.00;5074949;28;20067;-80
2021/07/28 05:59:14;;;;;;;;;;;;;;;16.92;85.26;96301.53;5058349;28;20015;-80
2021/07/28 06:01:40;;;;;;;;;;;;;;;16.87;84.20;96282.22;5074675;28;19972;-80
2021/07/28 06:04:06;;;;;;;;;;;;;;;16.86;85.01;96285.91;5058123;28;19960;-80
2021/07/28 06:06:32;;;;;;;;;;;;;;;16.88;85.34;96292.53;5041206;28;20337;-80
2021/07/28 06:08:58;;;;;;;;;;;;;;;16.92;85.91;96309.50;5041183;28;19991;-81
2021/07/28 06:11:24;;;;;;;;;;;;;;;16.96;85.77;96320.38;5058162;28;19961;-81
2021/07/28 06:13:50;;;;;;;;;;;;;;;16.98;85.86;96318.25;5041378;28;19975;-85
2021/07/28 06:16:16;;;;;;;;;;;;;;;16.96;85.20;96323.81;5076340;28;19972;-85
2021/07/28 06:18:42;;;;;;;;;;;;;;;16.96;85.61;96323.81;5041180;28;20379;-85
2021/07/28 06:21:08;;;;;;;;;;;;;;;16.97;87.16;96322.75;5041024;28;20423;-86
2021/07/28 06:23:34;;;;;;;;;;;;;;;16.99;86.51;96335.75;5074672;28;19965;-86
2021/07/28 06:26:00;;;;;;;;;;;;;;;16.96;86.29;96337.06;5090722;28;20041;-85
2021/07/28 06:28:29;;;;;;;;;;;;;;;16.93;86.56;96328.84;5074482;28;19992;-84
2021/07/28 06:30:55;;;;;;;;;;;;;;;16.88;86.54;96323.53;5091126;28;20429;-84
2021/07/28 06:33:22;;;;;;;;;;;;;;;16.81;86.66;96310.53;5057937;28;19965;-85
2021/07/28 06:35:49;;;;;;;;;;;;;;;16.80;87.43;96303.63;5075563;28;19972;-83
2021/07/28 06:38:15;;;;;;;;;;;;;;;16.82;88.21;96320.88;5057578;28;19971;-84
2021/07/28 06:40:42;;;;;;;;;;;;;;;16.85;88.16;96311.59;5057631;28;19968;-85
2021/07/28 06:43:08;;;;;;;;;;;;;;;16.92;88.45;96322.72;5073995;28;20431;-85
2021/07/28 06:45:34;;;;;;;;;;;;;;;16.96;88.40;96321.16;5057721;28;19972;-86
2021/07/28 06:48:00;;;;;;;;;;;;;;;16.95;87.58;96330.19;5057169;28;20348;-85
2021/07/28 06:50:39;;;;;;;;;;;;;;;16.94;87.61;96343.69;5132107;27;20064;-86
2021/07/28 06:53:05;;;;;;;;;;;;;;;16.96;88.31;96341.56;5061697;28;20087;-86
2021/07/28 06:55:31;;;;;;;;;;;;;;;16.96;87.60;96350.28;5068542;28;20038;-85
2021/07/28 06:57:57;;;;;;;;;;;;;;;16.96;87.55;96336.25;5063231;28;19968;-85
2021/07/28 07:00:23;;;;;;;;;;;;;;;16.95;87.38;96332.81;5063857;28;19973;-84
2021/07/28 07:02:49;;;;;;;;;;;;;;;16.89;89.07;96328.56;5103695;28;19975;-84
2021/07/28 07:05:15;;;;;;;;;;;;;;;16.81;88.28;96327.22;5110424;28;20430;-84
2021/07/28 07:07:41;;;;;;;;;;;;;;;16.80;88.34;96338.88;5064930;28;19975;-84
2021/07/28 07:10:08;;;;;;;;;;;;;;;16.80;88.40;96340.72;5098921;28;20039;-83
2021/07/28 07:12:35;;;;;;;;;;;;;;;16.78;89.10;96342.81;5089447;28;19980;-84
2021/07/28 07:15:02;;;;;;;;;;;;;;;16.77;89.63;96349.94;5081192;28;19968;-84
2021/07/28 07:17:29;;;;;;;;;;;;;;;16.78;87.30;96342.81;5108018;28;19975;-83
2021/07/28 07:19:55;;;;;;;;;;;;;;;16.75;87.20;96351.25;5126447;28;19972;-83
2021/07/28 07:22:21;;;;;;;;;;;;;;;16.70;87.59;96357.34;5102739;28;20355;-83
2021/07/28 07:24:47;;;;;;;;;;;;;;;16.72;88.05;96359.75;5122461;28;19975;-83
2021/07/28 07:27:14;;;;;;;;;;;;;;;16.71;87.69;96358.13;5100137;28;19972;-81
2021/07/28 07:29:40;;;;;;;;;;;;;;;16.77;89.10;96367.69;5102572;28;19983;-82
2021/07/28 07:32:06;;;;;;;;;;;;;;;16.80;88.41;96373.31;5104569;28;20347;-81
2021/07/28 07:34:32;;;;;;;;;;;;;;;16.81;88.14;96380.19;5080697;28;20440;-82
2021/07/28 07:36:58;;;;;;;;;;;;;;;16.79;87.42;96370.88;5079118;28;19979;-81
2021/07/28 07:39:25;;;;;;;;;;;;;;;16.77;88.73;96384.38;5085354;28;20017;-82
2021/07/28 07:41:51;;;;;;;;;;;;;;;16.75;87.62;96367.94;5079375;28;19972;-82
2021/07/28 07:44:16;;;;;;;;;;;;;;;16.73;86.98;96378.00;5123112;28;19964;-81
2021/07/28 07:46:43;;;;;;;;;;;;;;;16.72;88.69;96378.28;5064687;28;20406;-81
2021/07/28 07:49:09;;;;;;;;;;;;;;;16.76;89.05;96384.66;5058962;28;20015;-81
2021/07/28 07:51:35;;;;;;;;;;;;;;;16.82;89.32;96386.28;5065130;28;19973;-81
2021/07/28 07:54:01;;;;;;;;;;;;;;;16.86;89.48;96382.03;5089543;28;19972;-81
2021/07/28 07:56:28;;;;;;;;;;;;;;;16.88;88.63;96387.09;5079902;28;20007;-81
2021/07/28 07:58:54;;;;;;;;;;;;;;;16.85;86.93;96388.41;5065913;28;19973;-81
2021/07/28 08:01:20;;;;;;;;;;;;;;;16.78;90.08;96393.94;5051203;28;19976;-81
2021/07/28 08:03:46;;;;;;;;;;;;;;;16.78;89.52;96395.78;5055853;28;19972;-81
2021/07/28 08:06:12;;;;;;;;;;;;;;;16.78;88.81;96393.94;5088707;28;19975;-81
2021/07/28 08:08:39;;;;;;;;;;;;;;;16.84;89.91;96394.78;5052049;28;19972;-82
2021/07/28 08:11:05;;;;;;;;;;;;;;;16.92;89.08;96398.75;5062259;28;19980;-81
2021/07/28 08:13:31;;;;;;;;;;;;;;;16.99;89.01;96386.09;5070485;28;19974;-82
2021/07/28 08:15:57;;;;;;;;;;;;;;;17.02;87.71;96383.69;5087240;28;20385;-82
2021/07/28 08:18:23;;;;;;;;;;;;;;;17.02;87.76;96380.25;5082070;28;19999;-82
2021/07/28 08:20:49;;;;;;;;;;;;;;;17.04;88.91;96371.00;5092089;28;19984;-81
2021/07/28 08:23:15;;;;;;;;;;;;;;;17.08;87.48;96376.56;5057075;28;19972;-81
2021/07/28 08:25:41;;;;;;;;;;;;;;;17.07;87.38;96359.06;5068476;28;20068;-81
2021/07/28 08:28:10;;;;;;;;;;;;;;;17.12;87.10;96367.03;5069781;28;19976;-82
2021/07/28 08:30:36;;;;;;;;;;;;;;;17.12;85.52;96366.25;5049739;28;19980;-82
2021/07/28 08:33:02;;;;;;;;;;;;;;;17.04;85.44;96365.69;5068144;28;20012;-82
2021/07/28 08:35:28;;;;;;;;;;;;;;;17.00;85.91;96363.81;5084307;28;20002;-82
2021/07/28 08:37:53;;;;;;;;;;;;;;;17.06;87.45;96364.66;5069345;28;19982;-83
2021/07/28 08:40:19;;;;;;;;;;;;;;;17.09;86.53;96356.94;5049529;28;19972;-82
2021/07/28 08:42:46;;;;;;;;;;;;;;;17.09;86.21;96362.25;5071704;28;19975;-82
2021/07/28 08:45:16;;;;;;;;;;;;;;;17.12;85.93;96363.59;5065839;28;20419;-83
2021/07/28 08:47:42;;;;;;;;;;;;;;;17.09;87.88;96356.16;5066904;28;19964;-82
2021/07/28 08:50:09;;;;;;;;;;;;;;;17.11;87.00;96351.41;5084831;28;19996;-82
2021/07/28 08:52:35;;;;;;;;;;;;;;;17.17;86.57;96339.75;5077700;28;19983;-82
2021/07/28 08:55:05;;;;;;;;;;;;;;;17.29;86.28;96332.34;5081991;28;19972;-82
2021/07/28 08:57:34;;;;;;;;;;;;;;;17.37;86.39;96333.69;5067677;28;19977;-82
2021/07/28 09:00:01;;;;;;;;;;;;;;;17.47;85.08;96335.53;5079425;28;19968;-82
2021/07/28 09:02:28;;;;;;;;;;;;;;;17.54;85.77;96330.78;5069669;28;19973;-82
2021/07/28 09:04:54;;;;;;;;;;;;;;;17.66;85.94;96331.34;5052355;28;19979;-82
2021/07/28 09:07:23;;;;;;;;;;;;;;;17.75;85.55;96334.25;5090238;28;19990;-82
2021/07/28 09:09:51;;;;;;;;;;;;;;;17.87;84.13;96340.09;5065497;28;20428;-82
2021/07/28 09:12:17;;;;;;;;;;;;;;;17.92;83.85;96342.72;5065744;28;19983;-82
2021/07/28 09:14:53;;;;;;;;;;;;;;;17.96;85.09;96343.00;5068827;28;19975;-82
2021/07/28 09:17:23;;;;;;;;;;;;;;;17.96;80.84;96356.28;5083380;28;19971;-83
2021/07/28 09:19:49;;;;;;;;;;;;;;;17.92;79.01;96349.91;5064122;28;19979;-82
2021/07/28 09:22:18;;;;;;;;;;;;;;;17.83;80.77;96354.97;5056064;28;19983;-82
2021/07/28 09:24:47;;;;;;;;;;;;;;;17.90;83.59;96365.28;5065441;28;20513;-82
2021/07/28 09:27:33;;;;;;;;;;;;;;;17.98;82.86;96360.25;5060767;28;19970;-82
2021/07/28 09:29:59;;;;;;;;;;;;;;;18.02;81.11;96363.97;5082864;28;20371;-82
2021/07/28 09:32:25;;;;;;;;;;;;;;;18.04;80.31;96363.69;5049966;28;20076;-82
2021/07/28 09:34:53;;;;;;;;;;;;;;;18.04;81.11;96372.44;5065139;28;19977;-82
2021/07/28 09:37:19;;;;;;;;;;;;;;;18.09;81.71;96382.25;5085194;28;19971;-82
2021/07/28 09:39:48;;;;;;;;;;;;;;;18.18;80.91;96371.88;5049528;28;20413;-82
2021/07/28 09:42:15;;;;;;;;;;;;;;;18.34;80.13;96373.47;5057174;28;19964;-82
2021/07/28 09:44:52;;;;;;;;;;;;;;;18.39;77.81;96378.75;5082231;28;19984;-82
2021/07/28 09:47:19;;;;;;;;;;;;;;;18.48;78.35;96378.19;5105719;28;20344;-82
2021/07/28 09:49:46;;;;;;;;;;;;;;;18.49;77.24;96377.13;5072935;28;19999;-82
2021/07/28 09:52:15;;;;;;;;;;;;;;;18.51;76.37;96377.66;5085398;28;19968;-82
2021/07/28 09:54:41;;;;;;;;;;;;;;;18.52;75.59;96366.78;5060762;28;19972;-82
2021/07/28 09:57:10;;;;;;;;;;;;;;;18.46;76.58;96375.81;5086050;28;19996;-82
2021/07/28 09:59:42;;;;;;;;;;;;;;;18.49;75.45;96362.00;5074393;28;20420;-82
2021/07/28 10:02:28;;;;;;;;;;;;;;;18.64;77.28;96363.81;5075127;28;19976;-78
2021/07/28 10:04:54;;;;;;;;;;;;;;;18.74;76.97;96365.63;5105294;28;19968;-79
2021/07/28 10:07:21;;;;;;;;;;;;;;;18.77;76.17;96362.44;5107307;28;19971;-78
2021/07/28 10:09:52;;;;;;;;;;;;;;;18.79;76.25;96355.00;5104793;28;20440;-79
2021/07/28 10:12:19;;;;;;;;;;;;;;;18.82;76.44;96362.44;5089685;28;19968;-78
2021/07/28 10:14:45;;;;;;;;;;;;;;;18.82;74.92;96373.88;5104830;28;19968;-79
2021/07/28 10:17:12;;;;;;;;;;;;;;;18.73;72.88;96372.00;5103102;28;19998;-79
2021/07/28 10:19:39;;;;;;;;;;;;;;;18.66;74.44;96378.41;5100805;28;19973;-79
2021/07/28 10:22:06;;;;;;;;;;;;;;;18.62;75.20;96379.22;5107244;28;19979;-79
2021/07/28 10:24:32;;;;;;;;;;;;;;;18.56;73.65;96375.81;5090177;28;20355;-78
2021/07/28 10:27:00;;;;;;;;;;;;;;;18.57;76.03;96376.59;5081283;28;19968;-79
2021/07/28 10:29:26;;;;;;;;;;;;;;;18.62;76.37;96381.88;5082809;28;19980;-80
2021/07/28 10:31:53;;;;;;;;;;;;;;;18.64;74.47;96379.75;5067481;28;19969;-79
2021/07/28 10:34:20;;;;;;;;;;;;;;;18.64;74.51;96383.19;5092287;28;20433;-79
2021/07/28 10:36:47;;;;;;;;;;;;;;;18.83;76.24;96378.09;5102654;28;19995;-79
2021/07/28 10:39:32;;;;;;;;;;;;;;;19.08;73.84;96373.75;5104299;28;19977;-79
2021/07/28 10:41:58;;;;;;;;;;;;;;;19.34;73.89;96365.63;5067294;28;19975;-79
2021/07/28 10:44:23;;;;;;;;;;;;;;;19.38;70.05;96364.81;5081978;28;19972;-79
2021/07/28 10:47:11;;;;;;;;;;;;;;;19.32;69.75;96371.22;5103995;28;20309;-80
2021/07/28 10:49:38;;;;;;;;;;;;;;;19.34;69.83;96363.78;5104716;28;20004;-79
2021/07/28 10:52:04;;;;;;;;;;;;;;;19.41;70.32;96353.59;5084855;28;19972;-79
2021/07/28 10:54:46;;;;;;;;;;;;;;;19.44;69.61;96347.75;5088555;28;19980;-79
2021/07/28 10:57:31;;;;;;;;;;;;;;;19.49;70.53;96349.56;5084951;28;19991;-79
2021/07/28 10:59:57;;;;;;;;;;;;;;;19.58;70.19;96363.06;5102636;28;19968;-79
2021/07/28 11:02:23;;;;;;;;;;;;;;;19.68;69.84;96361.13;5083844;28;20541;-79
2021/07/28 11:05:07;;;;;;;;;;;;;;;20.01;70.63;96363.28;5100823;28;19977;-79
2021/07/28 11:07:52;;;;;;;;;;;;;;;20.39;70.23;96364.25;5079081;28;20339;-81
2021/07/28 11:10:21;;;;;;;;;;;;;;;20.81;68.52;96357.41;5103108;28;19976;-80
2021/07/28 11:12:47;;;;;;;;;;;;;;;20.87;64.11;96339.47;5101099;28;19980;-81
2021/07/28 11:15:16;;;;;;;;;;;;;;;20.74;67.34;96372.94;5086028;28;19973;-80
2021/07/28 11:17:43;;;;;;;;;;;;;;;20.83;65.85;96349.09;5059389;28;19975;-80
2021/07/28 11:20:09;;;;;;;;;;;;;;;21.04;65.24;96350.44;5081401;28;19983;-80
2021/07/28 11:22:35;;;;;;;;;;;;;;;21.35;66.92;96359.88;5101365;28;20000;-80
2021/07/28 11:25:01;;;;;;;;;;;;;;;21.55;63.29;96334.81;5086166;28;20468;-84
2021/07/28 11:27:27;;;;;;;;;;;;;;;21.63;62.94;96350.19;5089999;28;19979;-84
2021/07/28 11:30:10;;;;;;;;;;;;;;;21.77;63.15;96344.88;5065746;28;20436;-85
2021/07/28 11:32:39;;;;;;;;;;;;;;;21.84;61.58;96331.94;5086150;28;19976;-85
2021/07/28 11:35:06;;;;;;;;;;;;;;;21.88;62.30;96333.75;5088888;28;19969;-85
2021/07/28 11:37:32;;;;;;;;;;;;;;;21.93;62.94;96343.53;5072064;28;19972;-86
2021/07/28 11:39:59;;;;;;;;;;;;;;;21.93;62.92;96338.19;5086615;28;19973;-82
2021/07/28 11:42:28;;;;;;;;;;;;;;;21.83;62.22;96341.03;5047155;28;19973;-85
2021/07/28 11:44:54;;;;;;;;;;;;;;;21.66;60.40;96323.69;5052834;28;19980;-86
2021/07/28 11:47:23;;;;;;;;;;;;;;;21.70;63.48;96329.22;5068018;28;20071;-85
2021/07/28 11:50:00;;;;;;;;;;;;;;;21.87;62.88;96332.13;5069036;28;20463;-85
2021/07/28 11:52:26;;;;;;;;;;;;;;;22.07;59.99;96308.84;5067599;28;19972;-86
2021/07/28 11:54:52;;;;;;;;;;;;;;;22.31;58.79;96300.69;5071324;28;20472;-86
2021/07/28 11:57:18;;;;;;;;;;;;;;;22.44;62.21;96318.59;5047193;28;19968;-87
2021/07/28 11:59:44;;;;;;;;;;;;;;;22.54;58.78;96296.22;5072757;28;19968;-87
2021/07/28 12:02:18;;;;;;;;;;;;;;;22.66;56.90;96275.13;5105191;28;20418;-86
2021/07/28 12:04:46;;;;;;;;;;;;;;;22.84;59.36;96305.47;5089547;28;19965;-87
2021/07/28 12:07:15;;;;;;;;;;;;;;;23.03;59.75;96310.72;5067841;28;19973;-86
2021/07/28 12:09:41;;;;;;;;;;;;;;;23.26;57.53;96300.06;5073389;28;20449;-87
2021/07/28 12:12:21;;;;;;;;;;;;;;;23.35;56.86;96281.38;5091774;28;19968;-86
2021/07/28 12:14:47;;;;;;;;;;;;;;;23.24;56.92;96281.63;5092182;28;19968;-86
2021/07/28 12:17:13;;;;;;;;;;;;;;;22.95;57.60;96286.53;5083765;28;19976;-86
2021/07/28 12:19:40;;;;;;;;;;;;;;;22.99;57.32;96287.53;5086310;28;20421;-86
2021/07/28 12:22:10;;;;;;;;;;;;;;;23.29;58.24;96289.53;5093722;28;19976;-86
2021/07/28 12:24:39;;;;;;;;;;;;;;;23.59;55.13;96265.81;5069641;28;20428;-86
2021/07/28 12:27:26;;;;;;;;;;;;;;;23.71;54.87;96266.03;5085513;28;19976;-86
2021/07/28 12:30:08;;;;;;;;;;;;;;;23.59;53.60;96255.09;5092761;28;20382;-85
2021/07/28 12:32:37;;;;;;;;;;;;;;;23.73;53.95;96248.88;5074805;28;19968;-86
2021/07/28 12:35:23;;;;;;;;;;;;;;;23.85;54.73;96263.28;5106057;28;20340;-86
2021/07/28 12:38:04;;;;;;;;;;;;;;;24.07;54.25;96259.78;5112608;28;19968;-87
2021/07/28 12:40:30;;;;;;;;;;;;;;;23.90;50.64;96227.56;5069506;28;19968;-88
2021/07/28 12:42:56;;;;;;;;;;;;;;;23.58;52.65;96242.81;5085281;28;19969;-86
2021/07/28 12:45:23;;;;;;;;;;;;;;;23.23;54.04;96257.88;5072453;28;20444;-86
2021/07/28 12:47:49;;;;;;;;;;;;;;;23.17;55.31;96270.56;5099511;28;20324;-86
2021/07/28 12:50:15;;;;;;;;;;;;;;;23.49;55.64;96266.06;5069254;28;20003;-86
2021/07/28 12:52:45;;;;;;;;;;;;;;;23.91;54.83;96256.72;5071292;28;19976;-86